Albert J Ellis Airport Jacksonville US
ICAO: KOAJ
IATA: OAJ
Category: Medium
Scheduled Services: No

Elevation: 94 ft
TransAlt. 18000 ft.

Airport Communications:
WILMINGTON APP/DEP:121.4
AWOS 3:124.475
CTAF/UNICOM:123

KOAJ Zoom In..

Runways:

(A) RW 05 length 7100 ft width 150 ft
ILS 108.70 / hdg 52

(B) RW 23 length 7100 ft width 150 ft
---- / hdg 232

Location; KOAJ
Day. 22 / Time. 00.56 Zulu
* Altimeter: 30.38
* Temperature: 12° c. 53.6°f.
* Wind from: 000° Speed 00 kn.
Dewpoint: 04° c.
Visibility: 10 Statute Miles.
Clouds: Clear (automated report).

KOAJ 220056Z AUTO 00000KT 10SM CLR 12/04 A3038 RMK AO2 SLP291 T01170044


Wind - Calm.

  YouTube Music Video
 
jpsmedia.com for Web Design  worldairports.se 2018   terms of use